createdAt,value
2023-07-19T00:00:42.242Z,18.50
2023-07-19T00:03:44.331Z,18.60
2023-07-19T00:06:46.480Z,18.60
2023-07-19T00:09:48.222Z,18.70
2023-07-19T00:12:56.524Z,18.60
2023-07-19T00:15:59.393Z,18.60
2023-07-19T00:19:14.173Z,18.60
2023-07-19T00:22:22.006Z,18.60
2023-07-19T00:25:23.902Z,18.50
2023-07-19T00:28:25.803Z,18.50
2023-07-19T00:31:27.748Z,18.50
2023-07-19T00:34:29.580Z,18.50
2023-07-19T00:37:31.471Z,18.50
2023-07-19T00:40:34.325Z,18.40
2023-07-19T00:43:37.451Z,18.30
2023-07-19T00:46:39.680Z,18.30
2023-07-19T00:49:43.290Z,18.30
2023-07-19T00:52:45.182Z,18.20
2023-07-19T00:55:50.538Z,18.20
2023-07-19T00:58:53.483Z,18.20
2023-07-19T01:01:56.679Z,18.20
2023-07-19T01:04:58.678Z,18.10
2023-07-19T01:08:00.716Z,18.00
2023-07-19T01:11:03.068Z,18.00
2023-07-19T01:14:04.982Z,18.00
2023-07-19T01:17:07.035Z,18.00
2023-07-19T01:20:09.827Z,18.00
2023-07-19T01:23:12.446Z,17.90
2023-07-19T01:26:14.370Z,18.00
2023-07-19T01:29:16.492Z,17.90
2023-07-19T01:32:18.784Z,17.90
2023-07-19T01:35:20.841Z,17.90
2023-07-19T01:38:22.985Z,17.90
2023-07-19T01:41:25.073Z,17.80
2023-07-19T01:44:27.735Z,17.70
2023-07-19T01:47:29.565Z,17.70
2023-07-19T01:50:31.519Z,17.70
2023-07-19T01:53:33.347Z,17.60
2023-07-19T01:56:35.347Z,17.60
2023-07-19T01:59:37.138Z,17.60
2023-07-19T02:02:39.380Z,17.60
2023-07-19T02:05:42.040Z,17.70
2023-07-19T02:08:43.978Z,17.60
2023-07-19T02:11:46.014Z,17.60
2023-07-19T02:14:47.928Z,17.60
2023-07-19T02:17:49.728Z,17.60
2023-07-19T02:20:55.135Z,17.60
2023-07-19T02:23:57.269Z,17.60
2023-07-19T02:26:59.800Z,17.60
2023-07-19T02:30:01.728Z,17.60
2023-07-19T02:33:03.647Z,17.60
2023-07-19T02:36:06.279Z,17.60
2023-07-19T02:39:08.109Z,17.60
2023-07-19T02:42:09.922Z,17.60
2023-07-19T02:45:11.769Z,17.60
2023-07-19T02:48:13.820Z,17.60
2023-07-19T02:51:15.728Z,17.60
2023-07-19T02:54:17.703Z,17.60
2023-07-19T02:57:19.501Z,17.30
2023-07-19T03:00:21.466Z,17.20
2023-07-19T03:03:23.818Z,17.20
2023-07-19T03:06:25.681Z,17.10
2023-07-19T03:09:27.522Z,17.00
2023-07-19T03:12:29.898Z,17.00
2023-07-19T03:15:35.011Z,16.90
2023-07-19T03:18:37.012Z,16.90
2023-07-19T03:21:38.898Z,16.90
2023-07-19T03:24:40.757Z,16.70
2023-07-19T03:27:42.610Z,16.70
2023-07-19T03:30:44.773Z,16.70
2023-07-19T03:33:46.843Z,16.70
2023-07-19T03:36:48.710Z,16.60
2023-07-19T03:39:50.599Z,16.60
2023-07-19T03:42:52.684Z,16.50
2023-07-19T03:45:54.458Z,16.60
2023-07-19T03:48:56.420Z,16.60
2023-07-19T03:51:58.331Z,16.60
2023-07-19T03:55:00.238Z,16.70
2023-07-19T03:58:02.080Z,16.80
2023-07-19T04:01:04.405Z,16.80
2023-07-19T04:04:06.558Z,16.90
2023-07-19T04:07:08.433Z,16.90
2023-07-19T04:10:10.506Z,16.90
2023-07-19T04:13:13.120Z,17.00
2023-07-19T04:16:15.230Z,17.00
2023-07-19T04:19:17.037Z,17.00
2023-07-19T04:22:20.499Z,16.90
2023-07-19T04:25:22.531Z,16.90
2023-07-19T04:28:24.623Z,16.90
2023-07-19T04:31:26.457Z,16.90
2023-07-19T04:34:28.215Z,16.90
2023-07-19T04:37:29.991Z,16.90
2023-07-19T04:40:32.850Z,16.90
2023-07-19T04:43:35.205Z,16.90
2023-07-19T04:46:37.217Z,16.90
2023-07-19T04:49:39.328Z,17.00
2023-07-19T04:52:41.336Z,16.90
2023-07-19T04:55:44.455Z,17.00
2023-07-19T04:58:46.458Z,17.00
2023-07-19T05:01:48.445Z,17.00
2023-07-19T05:04:50.555Z,17.00
2023-07-19T05:07:52.444Z,17.00
2023-07-19T05:10:54.337Z,17.00
2023-07-19T05:13:56.733Z,17.00
2023-07-19T05:16:58.744Z,17.10
2023-07-19T05:20:01.005Z,17.10
2023-07-19T05:23:03.047Z,17.10
2023-07-19T05:26:05.605Z,17.20
2023-07-19T05:29:07.658Z,17.20
2023-07-19T05:32:09.548Z,17.20
2023-07-19T05:35:11.375Z,17.20
2023-07-19T05:38:14.214Z,17.30
2023-07-19T05:41:16.265Z,17.40
2023-07-19T05:44:19.007Z,17.30
2023-07-19T05:47:20.880Z,17.40
2023-07-19T05:50:22.939Z,17.40
2023-07-19T05:53:25.004Z,17.50
2023-07-19T05:56:26.936Z,17.60
2023-07-19T05:59:30.040Z,17.60
2023-07-19T06:02:47.438Z,17.70
2023-07-19T06:05:54.322Z,17.70
2023-07-19T06:08:56.119Z,17.80
2023-07-19T06:11:59.045Z,17.80
2023-07-19T06:15:01.453Z,17.90
2023-07-19T06:18:03.538Z,18.00
2023-07-19T06:21:05.607Z,17.90
2023-07-19T06:24:07.927Z,18.00
2023-07-19T06:27:09.967Z,18.00
2023-07-19T06:30:12.678Z,18.10
2023-07-19T06:33:14.745Z,18.10
2023-07-19T06:36:16.605Z,18.20
2023-07-19T06:39:19.563Z,18.20
2023-07-19T06:42:21.734Z,18.20
2023-07-19T06:45:23.960Z,18.30
2023-07-19T06:48:25.885Z,18.30
2023-07-19T06:51:28.679Z,18.40
2023-07-19T06:54:30.638Z,18.40
2023-07-19T06:57:32.590Z,18.50
2023-07-19T07:00:34.472Z,18.50
2023-07-19T07:03:36.583Z,18.60
2023-07-19T07:06:38.631Z,18.60
2023-07-19T07:09:40.726Z,18.60
2023-07-19T07:12:46.502Z,18.60
2023-07-19T07:15:51.137Z,18.70
2023-07-19T07:18:53.044Z,18.70
2023-07-19T07:21:55.035Z,18.80
2023-07-19T07:24:57.181Z,18.90
2023-07-19T07:28:00.500Z,19.00
2023-07-19T07:31:10.157Z,19.00
2023-07-19T07:34:12.580Z,19.10
2023-07-19T07:37:14.575Z,19.10
2023-07-19T07:40:16.445Z,19.10
2023-07-19T07:43:18.339Z,19.10
2023-07-19T07:46:20.364Z,19.20
2023-07-19T07:49:22.173Z,19.20
2023-07-19T07:52:24.049Z,19.20
2023-07-19T07:55:25.813Z,19.30
2023-07-19T07:58:27.781Z,19.30
2023-07-19T08:01:29.908Z,19.30
2023-07-19T08:04:31.814Z,19.30
2023-07-19T08:07:33.857Z,19.30
2023-07-19T08:10:42.094Z,19.30
2023-07-19T08:13:46.102Z,19.40
2023-07-19T08:16:52.718Z,19.50
2023-07-19T08:19:54.840Z,19.50
2023-07-19T08:22:56.817Z,19.60
2023-07-19T08:25:59.268Z,19.60
2023-07-19T08:29:01.067Z,19.60
2023-07-19T08:32:04.315Z,19.70
2023-07-19T08:35:06.763Z,19.70
2023-07-19T08:38:08.604Z,19.70
2023-07-19T08:41:13.409Z,19.70
2023-07-19T08:44:15.914Z,19.80
2023-07-19T08:47:18.426Z,19.80
2023-07-19T08:50:21.967Z,19.80
2023-07-19T08:53:25.859Z,19.80
2023-07-19T08:56:27.810Z,19.80
2023-07-19T08:59:29.782Z,19.90
2023-07-19T09:02:31.836Z,20.00
2023-07-19T09:05:36.484Z,20.10
2023-07-19T09:08:39.936Z,20.30
2023-07-19T09:11:51.691Z,20.50
2023-07-19T09:14:53.482Z,20.70
2023-07-19T09:17:56.141Z,20.80
2023-07-19T09:20:59.825Z,21.00
2023-07-19T09:24:06.040Z,21.10
2023-07-19T09:27:07.877Z,21.10
2023-07-19T09:30:12.096Z,21.30
2023-07-19T09:33:19.093Z,21.40
2023-07-19T09:36:21.442Z,21.40
2023-07-19T09:39:23.597Z,21.50
2023-07-19T09:42:26.381Z,21.50
2023-07-19T09:45:33.430Z,21.50
2023-07-19T09:48:35.608Z,21.50
2023-07-19T09:51:40.550Z,21.50
2023-07-19T09:54:44.230Z,21.60
2023-07-19T09:57:49.368Z,21.70
2023-07-19T10:00:51.922Z,21.70
2023-07-19T10:03:53.760Z,21.70
2023-07-19T10:07:08.361Z,21.70
2023-07-19T10:10:15.476Z,21.80
2023-07-19T10:13:18.592Z,21.80
2023-07-19T10:16:35.180Z,21.90
2023-07-19T10:19:37.202Z,21.90
2023-07-19T10:22:53.833Z,21.90
2023-07-19T10:25:55.763Z,21.90
2023-07-19T10:29:05.705Z,21.90
2023-07-19T10:32:08.896Z,21.90
2023-07-19T10:35:31.369Z,22.00
2023-07-19T10:38:33.595Z,22.00
2023-07-19T10:41:35.963Z,22.10
2023-07-19T10:44:38.093Z,22.10
2023-07-19T10:47:40.431Z,22.20
2023-07-19T10:50:45.518Z,22.30
2023-07-19T10:54:00.062Z,22.40
2023-07-19T10:57:02.438Z,22.50
2023-07-19T11:00:10.905Z,22.60
2023-07-19T11:03:17.029Z,22.60
2023-07-19T11:06:18.913Z,22.60
2023-07-19T11:09:20.710Z,22.60
2023-07-19T11:12:22.959Z,22.70
2023-07-19T11:15:28.309Z,22.80
2023-07-19T11:18:37.339Z,22.80
2023-07-19T11:21:45.453Z,22.80
2023-07-19T11:24:50.157Z,22.70
2023-07-19T11:27:51.941Z,22.70
2023-07-19T11:30:53.767Z,22.70
2023-07-19T11:34:18.931Z,22.60
2023-07-19T11:37:30.895Z,22.50
2023-07-19T11:40:33.516Z,22.50
2023-07-19T11:43:42.316Z,22.50
2023-07-19T11:46:45.037Z,22.50
2023-07-19T11:49:46.843Z,22.60
2023-07-19T11:52:53.021Z,22.60
2023-07-19T11:56:02.363Z,22.80
2023-07-19T11:59:04.803Z,22.80
2023-07-19T12:02:07.405Z,22.70
2023-07-19T12:05:09.628Z,22.70
2023-07-19T12:08:11.869Z,22.80
2023-07-19T12:11:14.527Z,22.90
2023-07-19T12:14:18.025Z,23.00
2023-07-19T12:17:19.880Z,23.10
2023-07-19T12:20:22.153Z,23.20
2023-07-19T12:29:44.664Z,23.20
2023-07-19T12:32:55.081Z,23.20
2023-07-19T12:35:57.457Z,23.30
2023-07-19T12:38:59.293Z,23.30
2023-07-19T12:42:01.476Z,23.40
2023-07-19T12:45:03.625Z,23.40
2023-07-19T12:48:06.147Z,23.50
2023-07-19T12:51:09.022Z,23.50
2023-07-19T12:54:10.861Z,23.50
2023-07-19T12:57:13.330Z,23.50
2023-07-19T13:00:15.880Z,23.40
2023-07-19T13:03:17.775Z,23.40
2023-07-19T13:06:19.788Z,23.40
2023-07-19T13:09:21.737Z,23.30
2023-07-19T13:12:24.672Z,23.20
2023-07-19T13:15:26.505Z,23.20
2023-07-19T13:18:29.036Z,23.10
2023-07-19T13:21:31.056Z,23.10
2023-07-19T13:24:33.618Z,23.10
2023-07-19T13:27:36.405Z,23.10
2023-07-19T13:30:38.928Z,22.90
2023-07-19T13:33:40.915Z,22.90
2023-07-19T13:39:47.949Z,22.80
2023-07-19T13:42:49.893Z,22.70
2023-07-19T13:45:51.963Z,22.70
2023-07-19T13:48:54.311Z,22.70
2023-07-19T13:51:56.255Z,22.60
2023-07-19T13:54:58.128Z,22.60
2023-07-19T13:58:03.814Z,22.50
2023-07-19T14:01:06.026Z,22.60
2023-07-19T14:04:07.920Z,22.80
2023-07-19T14:07:09.974Z,22.90
2023-07-19T14:10:12.227Z,22.90
2023-07-19T14:13:28.871Z,23.00
2023-07-19T14:16:34.915Z,23.00
2023-07-19T14:19:38.653Z,23.00
2023-07-19T14:22:43.851Z,23.00
2023-07-19T14:25:45.848Z,23.00
2023-07-19T14:28:47.671Z,23.10
2023-07-19T14:31:49.554Z,23.10
2023-07-19T14:34:52.443Z,23.20
2023-07-19T14:37:54.383Z,23.30
2023-07-19T14:40:57.607Z,23.30
2023-07-19T14:43:59.676Z,23.20
2023-07-19T14:47:03.212Z,23.10
2023-07-19T14:50:07.167Z,23.10
2023-07-19T14:53:09.305Z,23.10
2023-07-19T14:56:11.182Z,23.10
2023-07-19T14:59:13.208Z,23.20
2023-07-19T15:02:33.111Z,23.20
2023-07-19T15:05:35.903Z,23.30
2023-07-19T15:08:37.914Z,23.20
2023-07-19T15:11:40.139Z,23.20
2023-07-19T15:14:42.240Z,23.20
2023-07-19T15:17:44.311Z,23.20
2023-07-19T15:20:48.837Z,23.20
2023-07-19T15:23:51.153Z,23.10
2023-07-19T15:26:53.938Z,23.10
2023-07-19T15:29:55.967Z,23.10
2023-07-19T15:32:57.927Z,23.10
2023-07-19T15:36:00.525Z,23.10
2023-07-19T15:39:02.537Z,23.10
2023-07-19T15:42:04.790Z,23.10
2023-07-19T15:45:07.754Z,23.10
2023-07-19T15:48:09.767Z,23.00
2023-07-19T15:51:12.191Z,22.90
2023-07-19T15:54:14.323Z,22.90
2023-07-19T15:57:16.382Z,22.90
2023-07-19T16:00:18.374Z,22.90
2023-07-19T16:03:20.565Z,22.70
2023-07-19T16:06:22.544Z,22.70
2023-07-19T16:09:24.626Z,22.70
2023-07-19T16:12:26.656Z,22.70
2023-07-19T16:15:29.452Z,22.50
2023-07-19T16:18:31.767Z,22.50
2023-07-19T16:21:33.960Z,22.50
2023-07-19T16:24:35.942Z,22.50
2023-07-19T16:27:37.837Z,22.50
2023-07-19T16:30:39.712Z,22.50
2023-07-19T16:33:41.580Z,22.50
2023-07-19T16:36:43.685Z,22.60
2023-07-19T16:39:45.713Z,22.60
2023-07-19T16:42:47.554Z,22.60
2023-07-19T16:45:49.417Z,22.50
2023-07-19T16:48:51.389Z,22.40
2023-07-19T16:51:53.361Z,22.50
2023-07-19T16:54:55.177Z,22.50
2023-07-19T16:57:57.420Z,22.50
2023-07-19T17:00:59.290Z,22.50
2023-07-19T17:04:01.368Z,22.50
2023-07-19T17:07:03.669Z,22.40
2023-07-19T17:10:06.115Z,22.40
2023-07-19T17:13:08.143Z,22.40
2023-07-19T17:16:10.047Z,22.30
2023-07-19T17:19:15.585Z,22.30
2023-07-19T17:22:17.886Z,22.30
2023-07-19T17:25:20.096Z,22.20
2023-07-19T17:28:21.869Z,22.20
2023-07-19T17:31:24.286Z,22.20
2023-07-19T17:34:26.630Z,22.20
2023-07-19T17:37:28.411Z,22.20
2023-07-19T17:40:30.358Z,22.20
2023-07-19T17:43:32.336Z,22.20
2023-07-19T17:46:34.440Z,22.10
2023-07-19T17:49:36.398Z,22.10
2023-07-19T17:52:38.460Z,22.00
2023-07-19T17:55:40.321Z,21.90
2023-07-19T17:58:42.980Z,21.90
2023-07-19T18:01:45.057Z,21.90
2023-07-19T18:04:47.053Z,21.90
2023-07-19T18:07:50.972Z,21.80
2023-07-19T18:10:53.451Z,21.80
2023-07-19T18:13:55.487Z,21.80
2023-07-19T18:16:57.738Z,21.80
2023-07-19T18:20:00.346Z,21.70
2023-07-19T18:23:02.315Z,21.60
2023-07-19T18:26:04.666Z,21.50
2023-07-19T18:29:06.569Z,21.40
2023-07-19T18:32:09.099Z,21.30
2023-07-19T18:35:10.936Z,21.30
2023-07-19T18:38:13.339Z,21.30
2023-07-19T18:41:15.470Z,21.30
2023-07-19T18:44:17.435Z,21.20
2023-07-19T18:47:19.305Z,21.10
2023-07-19T18:50:21.248Z,21.10
2023-07-19T18:53:23.203Z,21.10
2023-07-19T18:56:25.331Z,21.10
2023-07-19T18:59:27.208Z,21.10
2023-07-19T19:02:29.662Z,21.20
2023-07-19T19:05:32.519Z,21.20
2023-07-19T19:08:34.476Z,21.10
2023-07-19T19:11:36.694Z,21.10
2023-07-19T19:14:39.631Z,21.10
2023-07-19T19:17:41.942Z,21.00
2023-07-19T19:20:44.437Z,20.90
2023-07-19T19:23:46.713Z,20.90
2023-07-19T19:26:48.990Z,20.90
2023-07-19T19:29:51.017Z,20.80
2023-07-19T19:32:53.181Z,20.80
2023-07-19T19:35:55.699Z,20.80
2023-07-19T19:38:59.014Z,20.80
2023-07-19T19:42:00.929Z,20.70
2023-07-19T19:45:07.491Z,20.70
2023-07-19T19:48:09.374Z,20.70
2023-07-19T19:51:11.383Z,20.60
2023-07-19T19:54:13.419Z,20.60
2023-07-19T19:57:17.762Z,20.50
2023-07-19T20:00:24.215Z,20.50
2023-07-19T20:06:31.950Z,20.50
2023-07-19T20:09:38.550Z,20.40
2023-07-19T20:12:47.213Z,20.30
2023-07-19T20:15:53.710Z,20.30
2023-07-19T20:18:55.729Z,20.30
2023-07-19T20:21:59.467Z,20.20
2023-07-19T20:25:08.200Z,20.20
2023-07-19T20:28:21.637Z,20.20
2023-07-19T20:37:36.479Z,20.10
2023-07-19T20:43:48.454Z,20.10
2023-07-19T20:46:50.782Z,20.10
2023-07-19T20:49:52.828Z,20.10
2023-07-19T20:52:54.798Z,20.10
2023-07-19T20:55:56.658Z,20.00
2023-07-19T20:58:58.535Z,20.10
2023-07-19T21:02:00.963Z,20.10
2023-07-19T21:05:03.911Z,20.00
2023-07-19T21:08:05.987Z,20.00
2023-07-19T21:11:08.006Z,20.00
2023-07-19T21:14:10.260Z,20.00
2023-07-19T21:17:12.266Z,20.00
2023-07-19T21:20:16.825Z,20.00
2023-07-19T21:23:18.860Z,20.00
2023-07-19T21:26:21.143Z,19.90
2023-07-19T21:29:24.431Z,20.00
2023-07-19T21:32:30.487Z,19.90
2023-07-19T21:35:32.421Z,19.90
2023-07-19T21:38:34.309Z,19.90
2023-07-19T21:41:36.490Z,19.80
2023-07-19T21:44:38.339Z,19.90
2023-07-19T21:47:40.526Z,19.80
2023-07-19T21:50:48.035Z,19.80
2023-07-19T21:53:51.027Z,19.90
2023-07-19T21:56:52.868Z,19.90
2023-07-19T21:59:54.894Z,19.80
2023-07-19T22:02:57.070Z,19.60
2023-07-19T22:05:59.039Z,19.60
2023-07-19T22:09:01.818Z,19.50
2023-07-19T22:12:04.295Z,19.30
2023-07-19T22:15:08.741Z,19.20
2023-07-19T22:18:28.312Z,19.20
2023-07-19T22:21:31.787Z,19.10
2023-07-19T22:24:34.270Z,19.10
2023-07-19T22:27:36.586Z,19.10
2023-07-19T22:30:39.500Z,19.00
2023-07-19T22:33:41.648Z,19.00
2023-07-19T22:36:43.803Z,18.80
2023-07-19T22:39:45.920Z,18.90
2023-07-19T22:42:47.787Z,18.90
2023-07-19T22:45:49.837Z,18.90
2023-07-19T22:48:51.860Z,18.80
2023-07-19T22:51:54.377Z,18.80
2023-07-19T22:54:56.184Z,18.80
2023-07-19T22:57:58.183Z,18.80
2023-07-19T23:01:00.336Z,18.80
2023-07-19T23:04:05.603Z,18.80
2023-07-19T23:07:07.553Z,18.70
2023-07-19T23:10:11.188Z,18.70
2023-07-19T23:13:14.359Z,18.60
2023-07-19T23:16:16.382Z,18.60
2023-07-19T23:19:18.298Z,18.60
2023-07-19T23:22:20.160Z,18.50
2023-07-19T23:25:22.358Z,18.50
2023-07-19T23:28:24.360Z,18.50
2023-07-19T23:31:26.560Z,18.50
2023-07-19T23:34:28.909Z,18.60
2023-07-19T23:37:30.750Z,18.60
2023-07-19T23:40:32.558Z,18.60
2023-07-19T23:43:34.559Z,18.50
2023-07-19T23:46:36.422Z,18.50
2023-07-19T23:49:38.478Z,18.50
2023-07-19T23:52:40.303Z,18.50
2023-07-19T23:55:42.248Z,18.50
2023-07-19T23:58:44.118Z,18.40
